createdAt,value
2022-10-31T00:00:59.027Z,5.40
2022-10-31T00:03:27.151Z,5.07
2022-10-31T00:05:54.951Z,5.35
2022-10-31T00:08:22.498Z,5.78
2022-10-31T00:10:50.102Z,4.88
2022-10-31T00:13:17.758Z,3.50
2022-10-31T00:15:45.387Z,6.40
2022-10-31T00:18:14.314Z,5.70
2022-10-31T00:20:41.859Z,6.28
2022-10-31T00:23:09.477Z,6.35
2022-10-31T00:25:37.612Z,3.75
2022-10-31T00:28:05.333Z,5.38
2022-10-31T00:30:32.980Z,5.88
2022-10-31T00:33:00.843Z,3.80
2022-10-31T00:35:30.118Z,8.63
2022-10-31T00:37:57.675Z,4.13
2022-10-31T00:40:25.267Z,8.95
2022-10-31T00:42:52.839Z,6.18
2022-10-31T00:45:20.762Z,5.72
2022-10-31T00:47:48.300Z,5.72
2022-10-31T00:50:15.877Z,4.88
2022-10-31T00:52:44.764Z,6.22
2022-10-31T00:55:12.312Z,4.80
2022-10-31T00:57:39.844Z,5.32
2022-10-31T01:00:08.547Z,4.32
2022-10-31T01:02:36.291Z,5.50
2022-10-31T01:05:04.117Z,4.75
2022-10-31T01:07:31.672Z,5.80
2022-10-31T01:10:00.570Z,5.53
2022-10-31T01:12:28.117Z,5.05
2022-10-31T01:14:55.739Z,5.45
2022-10-31T01:17:23.261Z,6.88
2022-10-31T01:19:50.814Z,5.13
2022-10-31T01:22:18.395Z,6.00
2022-10-31T01:24:45.947Z,4.93
2022-10-31T01:27:14.904Z,3.63
2022-10-31T01:29:42.408Z,6.07
2022-10-31T01:32:10.020Z,3.88
2022-10-31T01:34:37.564Z,4.10
2022-10-31T01:37:05.199Z,9.98
2022-10-31T01:39:32.753Z,5.75
2022-10-31T01:42:00.444Z,4.20
2022-10-31T01:44:53.449Z,5.13
2022-10-31T01:47:22.859Z,3.80
2022-10-31T01:49:51.365Z,5.47
2022-10-31T01:52:23.295Z,4.18
2022-10-31T01:54:53.527Z,4.93
2022-10-31T01:57:21.115Z,6.22
2022-10-31T01:59:51.949Z,4.80
2022-10-31T02:02:19.655Z,3.60
2022-10-31T02:04:47.556Z,4.63
2022-10-31T02:07:16.267Z,4.72
2022-10-31T02:09:43.784Z,4.43
2022-10-31T02:12:11.476Z,3.10
2022-10-31T02:14:39.008Z,6.05
2022-10-31T02:17:07.932Z,6.13
2022-10-31T02:19:37.849Z,4.32
2022-10-31T02:22:08.476Z,5.18
2022-10-31T02:24:45.459Z,4.70
2022-10-31T02:27:21.291Z,4.00
2022-10-31T02:30:10.159Z,4.10
2022-10-31T02:33:16.681Z,7.45
2022-10-31T02:35:51.435Z,4.32
2022-10-31T02:38:25.986Z,4.80
2022-10-31T02:40:56.300Z,5.30
2022-10-31T02:43:27.904Z,6.18
2022-10-31T02:45:57.438Z,4.07
2022-10-31T02:48:28.468Z,4.10
2022-10-31T02:50:57.751Z,4.40
2022-10-31T02:53:25.276Z,5.13
2022-10-31T02:56:00.804Z,3.45
2022-10-31T02:58:29.643Z,3.40
2022-10-31T03:01:21.671Z,4.53
2022-10-31T03:03:56.827Z,7.38
2022-10-31T03:06:26.832Z,6.72
2022-10-31T03:08:57.687Z,6.07
2022-10-31T03:11:26.015Z,4.00
2022-10-31T03:13:56.291Z,4.03
2022-10-31T03:16:25.840Z,4.47
2022-10-31T03:18:56.732Z,3.80
2022-10-31T03:21:25.247Z,4.22
2022-10-31T03:23:52.792Z,4.63
2022-10-31T03:26:20.307Z,3.78
2022-10-31T03:28:49.546Z,3.80
2022-10-31T03:31:18.952Z,4.68
2022-10-31T03:33:46.526Z,3.97
2022-10-31T03:36:16.277Z,3.50
2022-10-31T03:38:43.839Z,3.88
2022-10-31T03:41:13.201Z,5.55
2022-10-31T03:43:43.819Z,5.25
2022-10-31T03:46:11.407Z,3.90
2022-10-31T03:48:38.960Z,4.75
2022-10-31T03:51:08.506Z,4.20
2022-10-31T03:53:40.522Z,3.17
2022-10-31T03:56:11.452Z,5.32
2022-10-31T03:58:40.501Z,4.28
2022-10-31T04:01:08.315Z,4.53
2022-10-31T04:03:36.507Z,3.50
2022-10-31T04:06:06.544Z,5.82
2022-10-31T04:08:35.521Z,5.57
2022-10-31T04:11:04.466Z,4.28
2022-10-31T04:13:32.808Z,3.90
2022-10-31T04:16:00.471Z,2.67
2022-10-31T04:18:28.187Z,5.50
2022-10-31T04:21:02.028Z,4.90
2022-10-31T04:23:29.578Z,4.38
2022-10-31T04:25:57.113Z,3.63
2022-10-31T04:28:26.063Z,5.78
2022-10-31T04:30:53.680Z,6.78
2022-10-31T04:33:21.275Z,3.60
2022-10-31T04:35:48.876Z,3.35
2022-10-31T04:38:16.399Z,5.22
2022-10-31T04:40:43.991Z,4.57
2022-10-31T04:43:11.641Z,3.60
2022-10-31T04:45:40.612Z,4.10
2022-10-31T04:48:08.183Z,4.45
2022-10-31T04:50:35.778Z,3.45
2022-10-31T04:53:03.398Z,3.35
2022-10-31T04:55:30.951Z,5.75
2022-10-31T04:57:59.058Z,3.38
2022-10-31T05:00:26.874Z,3.00
2022-10-31T05:02:56.580Z,4.07
2022-10-31T05:05:24.987Z,3.22
2022-10-31T05:07:52.736Z,3.47
2022-10-31T05:10:21.255Z,8.05
2022-10-31T05:12:49.475Z,5.97
2022-10-31T05:15:17.519Z,4.97
2022-10-31T05:17:45.240Z,7.35
2022-10-31T05:20:14.521Z,3.75
2022-10-31T05:22:44.476Z,4.78
2022-10-31T05:25:12.162Z,4.32
2022-10-31T05:27:41.314Z,2.55
2022-10-31T05:30:09.563Z,5.20
2022-10-31T05:32:40.761Z,4.95
2022-10-31T05:35:09.864Z,2.67
2022-10-31T05:37:38.941Z,3.70
2022-10-31T05:40:08.593Z,4.20
2022-10-31T05:42:36.263Z,3.47
2022-10-31T05:45:03.951Z,3.25
2022-10-31T05:47:31.486Z,3.60
2022-10-31T05:49:59.087Z,2.90
2022-10-31T05:52:26.606Z,3.63
2022-10-31T05:54:55.523Z,2.47
2022-10-31T05:57:23.130Z,3.10
2022-10-31T05:59:55.115Z,5.28
2022-10-31T06:02:23.014Z,2.65
2022-10-31T06:04:50.690Z,2.97
2022-10-31T06:07:18.354Z,4.45
2022-10-31T06:09:45.884Z,6.78
2022-10-31T06:12:14.830Z,4.43
2022-10-31T06:14:42.351Z,4.05
2022-10-31T06:17:10.290Z,7.60
2022-10-31T06:19:37.927Z,4.43
2022-10-31T06:22:05.641Z,3.58
2022-10-31T06:24:33.191Z,5.45
2022-10-31T06:27:00.774Z,3.40
2022-10-31T06:29:29.747Z,3.63
2022-10-31T06:31:57.289Z,4.13
2022-10-31T06:34:24.912Z,4.15
2022-10-31T06:36:52.489Z,4.40
2022-10-31T06:39:19.998Z,4.05
2022-10-31T06:41:49.246Z,5.45
2022-10-31T06:44:16.818Z,4.32
2022-10-31T06:46:45.775Z,4.20
2022-10-31T06:49:13.336Z,4.43
2022-10-31T06:51:40.959Z,4.13
2022-10-31T06:54:08.537Z,3.75
2022-10-31T06:56:36.158Z,3.75
2022-10-31T06:59:03.757Z,4.10
2022-10-31T07:01:31.431Z,3.55
2022-10-31T07:04:00.500Z,4.00
2022-10-31T07:06:28.057Z,4.35
2022-10-31T07:08:55.643Z,3.88
2022-10-31T07:11:23.238Z,4.07
2022-10-31T07:13:50.935Z,4.78
2022-10-31T07:16:18.526Z,2.50
2022-10-31T07:18:46.108Z,3.97
2022-10-31T07:21:15.004Z,6.60
2022-10-31T07:23:42.648Z,5.28
2022-10-31T07:26:10.436Z,2.92
2022-10-31T07:28:38.033Z,5.03
2022-10-31T07:31:05.750Z,4.07
2022-10-31T07:33:33.314Z,5.65
2022-10-31T07:36:00.910Z,3.72
2022-10-31T07:38:29.943Z,3.72
2022-10-31T07:40:57.526Z,4.43
2022-10-31T07:43:25.442Z,3.80
2022-10-31T07:45:53.549Z,3.17
2022-10-31T07:48:21.207Z,4.53
2022-10-31T07:50:48.759Z,3.15
2022-10-31T07:53:16.401Z,2.97
2022-10-31T07:55:45.360Z,4.10
2022-10-31T07:58:13.779Z,3.00
2022-10-31T08:00:42.931Z,2.20
2022-10-31T08:03:11.267Z,2.72
2022-10-31T08:05:38.841Z,3.47
2022-10-31T08:08:06.719Z,2.65
2022-10-31T08:10:34.381Z,2.97
2022-10-31T08:13:04.554Z,2.80
2022-10-31T08:15:32.256Z,3.55
2022-10-31T08:18:00.272Z,3.42
2022-10-31T08:20:28.151Z,5.28
2022-10-31T08:22:57.136Z,3.58
2022-10-31T08:25:24.935Z,3.63
2022-10-31T08:27:53.244Z,3.30
2022-10-31T08:30:22.214Z,3.47
2022-10-31T08:32:49.830Z,3.38
2022-10-31T08:35:17.394Z,4.85
2022-10-31T08:37:44.948Z,2.38
2022-10-31T08:40:14.024Z,3.00
2022-10-31T08:42:41.622Z,3.20
2022-10-31T08:45:09.719Z,5.20
2022-10-31T08:47:38.660Z,4.68
2022-10-31T08:50:06.856Z,5.78
2022-10-31T08:53:03.070Z,5.47
2022-10-31T08:55:22.413Z,4.30
2022-10-31T08:57:50.013Z,4.40
2022-10-31T09:00:17.913Z,5.95
2022-10-31T09:02:46.855Z,4.28
2022-10-31T09:05:14.594Z,7.85
2022-10-31T09:07:42.170Z,3.75
2022-10-31T09:10:10.099Z,5.93
2022-10-31T09:12:37.645Z,4.57
2022-10-31T09:15:07.378Z,5.35
2022-10-31T09:17:35.011Z,7.60
2022-10-31T09:20:04.053Z,5.43
2022-10-31T09:22:31.720Z,4.93
2022-10-31T09:24:59.288Z,5.35
2022-10-31T09:27:26.855Z,4.70
2022-10-31T09:29:54.450Z,4.40
2022-10-31T09:32:22.166Z,4.78
2022-10-31T09:34:49.733Z,4.95
2022-10-31T09:37:18.957Z,6.45
2022-10-31T09:39:46.520Z,6.03
2022-10-31T09:42:31.415Z,5.22
2022-10-31T09:45:02.776Z,7.55
2022-10-31T09:47:36.716Z,5.43
2022-10-31T09:50:13.306Z,6.15
2022-10-31T09:52:48.177Z,6.68
2022-10-31T09:55:17.247Z,6.53
2022-10-31T09:57:44.870Z,6.10
2022-10-31T10:00:17.435Z,5.68
2022-10-31T10:02:46.841Z,3.63
2022-10-31T10:05:15.107Z,5.30
2022-10-31T10:07:48.084Z,4.72
2022-10-31T10:10:18.153Z,5.18
2022-10-31T10:13:02.167Z,4.85
2022-10-31T10:15:45.214Z,5.97
2022-10-31T10:18:19.938Z,4.65
2022-10-31T10:20:55.096Z,7.68
2022-10-31T10:23:38.130Z,3.05
2022-10-31T10:26:11.321Z,5.10
2022-10-31T10:28:40.856Z,5.70
2022-10-31T10:31:09.903Z,5.07
2022-10-31T10:33:38.886Z,7.47
2022-10-31T10:36:07.579Z,5.00
2022-10-31T10:38:37.801Z,7.70
2022-10-31T10:41:07.097Z,6.22
2022-10-31T10:43:35.046Z,5.28
2022-10-31T10:46:39.731Z,4.47
2022-10-31T10:49:13.928Z,3.38
2022-10-31T10:54:44.581Z,5.50
2022-10-31T10:57:19.015Z,5.50
2022-10-31T10:59:47.036Z,5.20
2022-10-31T11:02:18.966Z,5.40
2022-10-31T11:04:46.722Z,5.22
2022-10-31T11:07:14.301Z,6.07
2022-10-31T11:09:43.280Z,6.45
2022-10-31T11:12:11.793Z,4.95
2022-10-31T11:14:46.052Z,2.60
2022-10-31T11:17:22.251Z,4.22
2022-10-31T11:19:49.836Z,6.75
2022-10-31T11:22:18.723Z,3.88
2022-10-31T11:24:47.923Z,5.15
2022-10-31T11:27:17.354Z,6.72
2022-10-31T11:29:44.939Z,3.38
2022-10-31T11:32:20.959Z,5.97
2022-10-31T11:34:51.273Z,4.10
2022-10-31T11:37:20.598Z,3.10
2022-10-31T11:39:54.297Z,5.53
2022-10-31T11:42:23.928Z,5.68
2022-10-31T11:44:51.928Z,8.50
2022-10-31T11:47:20.091Z,5.82
2022-10-31T11:49:50.368Z,9.02
2022-10-31T11:52:19.747Z,5.15
2022-10-31T11:54:50.522Z,8.32
2022-10-31T11:57:26.075Z,4.90
2022-10-31T11:59:54.499Z,7.38
2022-10-31T12:02:22.281Z,3.67
2022-10-31T12:04:52.764Z,6.50
2022-10-31T12:07:20.331Z,3.70
2022-10-31T12:09:49.320Z,5.82
2022-10-31T12:12:31.501Z,7.45
2022-10-31T12:15:06.161Z,6.45
2022-10-31T12:17:38.380Z,5.90
2022-10-31T12:20:10.582Z,5.72
2022-10-31T12:22:42.859Z,9.57
2022-10-31T12:25:23.936Z,4.00
2022-10-31T12:28:12.254Z,5.22
2022-10-31T12:30:48.923Z,4.95
2022-10-31T12:33:25.054Z,5.45
2022-10-31T12:35:57.240Z,3.97
2022-10-31T12:38:51.806Z,4.70
2022-10-31T12:41:30.883Z,6.50
2022-10-31T12:44:00.367Z,4.68
2022-10-31T12:46:37.451Z,5.47
2022-10-31T12:49:19.397Z,3.90
2022-10-31T12:51:51.729Z,5.05
2022-10-31T12:54:33.043Z,4.32
2022-10-31T12:57:05.319Z,5.03
2022-10-31T12:59:34.117Z,4.82
2022-10-31T13:02:03.366Z,5.22
2022-10-31T13:04:37.476Z,5.85
2022-10-31T13:07:08.649Z,8.57
2022-10-31T13:09:38.874Z,5.95
2022-10-31T13:12:10.379Z,5.88
2022-10-31T13:14:40.155Z,3.88
2022-10-31T13:17:07.707Z,4.88
2022-10-31T13:19:41.583Z,3.65
2022-10-31T13:22:10.845Z,5.50
2022-10-31T13:24:40.467Z,5.75
2022-10-31T13:27:15.652Z,4.95
2022-10-31T13:29:46.032Z,3.53
2022-10-31T13:32:14.071Z,4.90
2022-10-31T13:34:44.550Z,4.10
2022-10-31T13:37:25.958Z,5.85
2022-10-31T13:40:04.684Z,4.47
2022-10-31T13:42:42.443Z,5.30
2022-10-31T13:45:17.232Z,5.15
2022-10-31T13:47:44.895Z,4.00
2022-10-31T13:50:23.274Z,5.00
2022-10-31T13:52:50.867Z,4.68
2022-10-31T13:55:37.398Z,6.03
2022-10-31T13:58:07.240Z,4.90
2022-10-31T14:00:36.059Z,4.55
2022-10-31T14:03:05.101Z,6.00
2022-10-31T14:05:33.966Z,4.35
2022-10-31T14:08:03.643Z,4.00
2022-10-31T14:10:33.085Z,3.85
2022-10-31T14:13:07.972Z,4.93
2022-10-31T14:15:35.683Z,4.60
2022-10-31T14:18:06.397Z,6.88
2022-10-31T14:20:39.314Z,3.88
2022-10-31T14:23:36.443Z,3.88
2022-10-31T14:26:34.633Z,5.50
2022-10-31T14:29:04.705Z,3.67
2022-10-31T14:31:36.613Z,6.43
2022-10-31T14:34:17.397Z,4.20
2022-10-31T14:36:49.062Z,5.60
2022-10-31T14:39:19.559Z,7.70
2022-10-31T14:41:54.660Z,4.72
2022-10-31T14:44:40.608Z,5.75
2022-10-31T14:47:12.911Z,6.07
2022-10-31T14:49:52.968Z,6.13
2022-10-31T14:52:20.634Z,6.78
2022-10-31T14:54:51.235Z,7.47
2022-10-31T14:57:21.033Z,5.05
2022-10-31T14:59:51.089Z,7.78
2022-10-31T15:02:20.769Z,5.18
2022-10-31T15:04:48.500Z,8.82
2022-10-31T15:07:21.822Z,7.18
2022-10-31T15:09:57.676Z,5.93
2022-10-31T15:12:26.992Z,6.93
2022-10-31T15:14:55.997Z,8.88
2022-10-31T15:17:23.737Z,7.45
2022-10-31T15:19:51.456Z,7.03
2022-10-31T15:22:19.992Z,7.90
2022-10-31T15:24:47.573Z,6.03
2022-10-31T15:27:17.256Z,9.55
2022-10-31T15:29:51.339Z,6.78
2022-10-31T15:32:23.581Z,11.52
2022-10-31T15:34:51.591Z,8.40
2022-10-31T15:37:19.787Z,6.05
2022-10-31T15:39:48.078Z,7.97
2022-10-31T15:42:19.454Z,6.93
2022-10-31T15:44:46.995Z,6.13
2022-10-31T15:47:17.554Z,6.60
2022-10-31T15:49:49.982Z,7.40
2022-10-31T15:52:19.288Z,9.23
2022-10-31T15:54:49.573Z,7.72
2022-10-31T15:57:17.112Z,7.28
2022-10-31T15:59:47.048Z,8.85
2022-10-31T16:02:15.451Z,11.48
2022-10-31T16:04:52.415Z,9.25
2022-10-31T16:07:23.287Z,9.23
2022-10-31T16:09:52.689Z,10.65
2022-10-31T16:12:22.616Z,10.23
2022-10-31T16:14:51.016Z,12.65
2022-10-31T16:17:20.395Z,10.02
2022-10-31T16:19:52.896Z,8.75
2022-10-31T16:22:25.858Z,13.30
2022-10-31T16:24:56.029Z,12.18
2022-10-31T16:27:26.626Z,12.30
2022-10-31T16:29:54.228Z,13.43
2022-10-31T16:32:53.428Z,11.18
2022-10-31T16:35:27.040Z,16.08
2022-10-31T16:37:54.695Z,10.98
2022-10-31T16:40:22.562Z,12.57
2022-10-31T16:42:50.800Z,12.48
2022-10-31T16:45:19.691Z,17.50
2022-10-31T16:47:47.324Z,11.60
2022-10-31T16:50:16.442Z,14.35
2022-10-31T16:53:08.409Z,11.50
2022-10-31T16:55:35.849Z,10.65
2022-10-31T16:58:04.081Z,16.08
2022-10-31T17:00:31.743Z,11.57
2022-10-31T17:02:59.348Z,14.60
2022-10-31T17:05:30.073Z,16.33
2022-10-31T17:07:59.261Z,11.82
2022-10-31T17:10:27.146Z,13.15
2022-10-31T17:12:54.767Z,12.73
2022-10-31T17:15:25.435Z,11.32
2022-10-31T17:17:53.171Z,12.93
2022-10-31T17:20:21.827Z,14.18
2022-10-31T17:22:49.438Z,10.38
2022-10-31T17:25:19.273Z,11.63
2022-10-31T17:27:47.468Z,14.60
2022-10-31T17:30:15.436Z,12.52
2022-10-31T17:32:43.042Z,10.48
2022-10-31T17:35:11.052Z,10.95
2022-10-31T17:37:38.605Z,11.90
2022-10-31T17:40:07.870Z,11.50
2022-10-31T17:42:36.895Z,7.30
2022-10-31T17:45:04.992Z,10.82
2022-10-31T17:47:32.632Z,6.25
2022-10-31T17:50:00.256Z,8.10
2022-10-31T17:52:27.839Z,10.82
2022-10-31T17:54:55.481Z,8.40
2022-10-31T17:57:23.105Z,9.50
2022-10-31T17:59:52.117Z,9.18
2022-10-31T18:02:19.738Z,14.80
2022-10-31T18:04:47.356Z,8.02
2022-10-31T18:07:19.094Z,9.93
2022-10-31T18:09:47.571Z,7.63
2022-10-31T18:12:15.379Z,8.30
2022-10-31T18:14:48.128Z,7.78
2022-10-31T18:17:17.471Z,12.45
2022-10-31T18:19:45.715Z,8.25
2022-10-31T18:22:13.453Z,8.55
2022-10-31T18:24:41.041Z,6.60
2022-10-31T18:27:08.596Z,7.30
2022-10-31T18:29:36.180Z,7.30
2022-10-31T18:32:09.020Z,5.55
2022-10-31T18:34:38.344Z,9.38
2022-10-31T18:37:05.882Z,5.72
2022-10-31T18:39:33.478Z,6.97
2022-10-31T18:42:01.123Z,9.07
2022-10-31T18:44:28.709Z,9.77
2022-10-31T18:46:56.305Z,5.85
2022-10-31T18:49:23.880Z,7.43
2022-10-31T18:51:52.783Z,7.07
2022-10-31T18:54:20.698Z,6.18
2022-10-31T18:56:48.725Z,8.98
2022-10-31T18:59:16.769Z,8.98
2022-10-31T19:01:44.577Z,8.45
2022-10-31T19:04:12.284Z,9.40
2022-10-31T19:06:40.095Z,5.95
2022-10-31T19:09:09.900Z,11.00
2022-10-31T19:11:38.002Z,7.75
2022-10-31T19:14:06.379Z,8.95
2022-10-31T19:16:33.992Z,7.97
2022-10-31T19:19:01.660Z,6.68
2022-10-31T19:21:30.442Z,5.47
2022-10-31T19:23:58.174Z,9.98
2022-10-31T19:26:27.181Z,9.60
2022-10-31T19:28:55.544Z,9.05
2022-10-31T19:31:23.358Z,10.70
2022-10-31T19:33:51.063Z,6.95
2022-10-31T19:36:19.520Z,7.80
2022-10-31T19:38:47.853Z,10.65
2022-10-31T19:41:16.370Z,5.57
2022-10-31T19:43:45.402Z,9.95
2022-10-31T19:46:22.021Z,7.43
2022-10-31T19:48:50.204Z,10.77
2022-10-31T19:51:19.071Z,5.80
2022-10-31T19:53:47.067Z,9.52
2022-10-31T19:56:15.867Z,7.70
2022-10-31T19:58:44.865Z,7.50
2022-10-31T20:01:13.341Z,6.70
2022-10-31T20:03:41.931Z,10.52
2022-10-31T20:06:12.284Z,8.48
2022-10-31T20:08:39.998Z,7.25
2022-10-31T20:11:07.616Z,9.55
2022-10-31T20:13:35.190Z,6.93
2022-10-31T20:16:05.597Z,7.25
2022-10-31T20:18:33.237Z,7.07
2022-10-31T20:21:04.969Z,8.10
2022-10-31T20:23:32.936Z,8.50
2022-10-31T20:26:00.539Z,8.23
2022-10-31T20:28:28.230Z,7.50
2022-10-31T20:30:55.784Z,6.93
2022-10-31T20:33:24.768Z,8.10
2022-10-31T20:35:52.408Z,9.68
2022-10-31T20:38:19.973Z,6.05
2022-10-31T20:40:47.668Z,7.38
2022-10-31T20:43:16.393Z,7.82
2022-10-31T20:45:43.982Z,5.75
2022-10-31T20:48:11.559Z,6.50
2022-10-31T20:50:40.690Z,9.18
2022-10-31T20:53:08.631Z,6.13
2022-10-31T20:55:36.282Z,7.38
2022-10-31T20:58:03.835Z,6.55
2022-10-31T21:00:31.400Z,7.35
2022-10-31T21:02:59.173Z,6.80
2022-10-31T21:05:27.019Z,6.90
2022-10-31T21:07:55.971Z,7.85
2022-10-31T21:10:23.603Z,6.97
2022-10-31T21:12:51.203Z,8.93
2022-10-31T21:15:18.863Z,8.32
2022-10-31T21:17:46.449Z,10.95
2022-10-31T21:20:14.309Z,8.32
2022-10-31T21:22:41.939Z,6.30
2022-10-31T21:25:11.096Z,6.78
2022-10-31T21:27:38.732Z,9.15
2022-10-31T21:30:07.368Z,9.00
2022-10-31T21:32:34.899Z,9.60
2022-10-31T21:35:02.419Z,11.50
2022-10-31T21:37:29.976Z,8.43
2022-10-31T21:39:57.668Z,8.40
2022-10-31T21:42:26.613Z,9.32
2022-10-31T21:44:54.271Z,7.70
2022-10-31T21:47:21.892Z,7.85
2022-10-31T21:49:49.450Z,7.25
2022-10-31T21:52:16.967Z,7.30
2022-10-31T21:54:43.539Z,6.28
2022-10-31T21:57:11.169Z,7.53
2022-10-31T21:59:41.246Z,6.35
2022-10-31T22:02:10.147Z,6.95
2022-10-31T22:04:37.770Z,9.45
2022-10-31T22:07:05.394Z,7.88
2022-10-31T22:09:32.927Z,5.40
2022-10-31T22:12:01.248Z,5.70
2022-10-31T22:14:28.960Z,8.27
2022-10-31T22:16:57.992Z,7.32
2022-10-31T22:19:25.588Z,8.35
2022-10-31T22:21:53.151Z,8.45
2022-10-31T22:24:20.956Z,8.65
2022-10-31T22:26:48.533Z,8.15
2022-10-31T22:29:17.156Z,5.38
2022-10-31T22:31:45.606Z,7.22
2022-10-31T22:34:14.780Z,6.45
2022-10-31T22:36:42.581Z,4.95
2022-10-31T22:39:10.668Z,5.38
2022-10-31T22:41:38.824Z,6.93
2022-10-31T22:44:06.648Z,5.90
2022-10-31T22:46:35.176Z,8.15
2022-10-31T22:49:04.280Z,7.93
2022-10-31T22:51:33.902Z,6.10
2022-10-31T22:54:01.494Z,6.80
2022-10-31T22:56:30.212Z,5.55
2022-10-31T22:58:58.172Z,3.78
2022-10-31T23:01:26.575Z,5.78
2022-10-31T23:03:54.275Z,5.93
2022-10-31T23:06:23.103Z,5.72
2022-10-31T23:08:52.166Z,6.13
2022-10-31T23:11:20.787Z,5.05
2022-10-31T23:14:06.345Z,5.15
2022-10-31T23:16:33.961Z,6.18
2022-10-31T23:19:01.560Z,5.53
2022-10-31T23:21:54.349Z,5.88
2022-10-31T23:24:24.667Z,5.55
2022-10-31T23:27:09.672Z,6.28
2022-10-31T23:29:43.178Z,5.60
2022-10-31T23:32:13.259Z,5.53
2022-10-31T23:34:40.832Z,4.88
2022-10-31T23:39:42.295Z,6.10
2022-10-31T23:42:10.293Z,6.35
2022-10-31T23:44:37.907Z,5.22
2022-10-31T23:47:05.775Z,5.07
2022-10-31T23:49:33.364Z,5.18
2022-10-31T23:52:01.094Z,5.43
2022-10-31T23:54:28.785Z,4.78
2022-10-31T23:56:58.297Z,5.40
2022-10-31T23:59:26.287Z,6.38
